Time;durP1;ratioP1;P1;durP2;ratioP2;P2;SDS_P1;SDS_P2;PMS_P1;PMS_P2;Temp;Humidity;BMP_temperature;BMP_pressure;BME280_temperature;BME280_humidity;BME280_pressure;Samples;Min_cycle;Max_cycle;Signal;HPM_P1;HPM_P2
2022/01/30 00:00:07;;;;;;;;;;;;;;;11.06;52.55;101597.72;5024084;28;6804;-70
2022/01/30 00:02:33;;;;;;;;;;;;;;;11.04;52.15;101609.53;5057768;28;6958;-70
2022/01/30 00:04:58;;;;;;;;;;;;;;;11.02;52.20;101605.97;5035715;28;7921;-70
2022/01/30 00:07:24;;;;;;;;;;;;;;;11.01;52.18;101609.34;5025953;28;6859;-70
2022/01/30 00:09:50;;;;;;;;;;;;;;;11.00;52.24;101611.78;5034047;28;6874;-70
2022/01/30 00:12:25;;;;;;;;;;;;;;;10.96;52.05;101616.72;5020075;28;7266;-70
2022/01/30 00:14:54;;;;;;;;;;;;;;;10.94;52.50;101617.41;5024826;28;7186;-70
2022/01/30 00:17:25;;;;;;;;;;;;;;;10.89;52.51;101617.09;5017922;28;6824;-68
2022/01/30 00:20:02;;;;;;;;;;;;;;;10.86;52.52;101622.03;5023739;28;7177;-69
2022/01/30 00:25:04;;;;;;;;;;;;;;;10.77;52.63;101624.91;5039458;28;6823;-69
2022/01/30 00:27:33;;;;;;;;;;;;;;;10.74;52.91;101637.50;5032196;28;6815;-69
2022/01/30 00:29:59;;;;;;;;;;;;;;;10.70;53.53;101638.09;5038578;28;6819;-69
2022/01/30 00:32:25;;;;;;;;;;;;;;;10.69;53.00;101651.69;5025512;28;7387;-69
2022/01/30 00:34:51;;;;;;;;;;;;;;;10.66;53.11;101644.69;5037787;28;6958;-69
2022/01/30 00:37:17;;;;;;;;;;;;;;;10.64;53.08;101650.47;5028431;28;7620;-69
2022/01/30 00:39:43;;;;;;;;;;;;;;;10.61;52.91;101655.41;5023180;28;6999;-69
2022/01/30 00:42:09;;;;;;;;;;;;;;;10.56;53.46;101652.53;5034971;28;6863;-69
2022/01/30 00:44:34;;;;;;;;;;;;;;;10.51;53.68;101648.75;5044643;28;6994;-69
2022/01/30 00:47:03;;;;;;;;;;;;;;;10.49;53.60;101650.31;5029460;28;6918;-69
2022/01/30 00:49:29;;;;;;;;;;;;;;;10.47;53.22;101644.22;4999739;28;8923;-69
2022/01/30 00:51:55;;;;;;;;;;;;;;;10.42;53.74;101646.47;5024735;28;7141;-69
2022/01/30 00:54:20;;;;;;;;;;;;;;;10.39;53.28;101641.97;5023787;28;7938;-69
2022/01/30 00:56:46;;;;;;;;;;;;;;;10.37;53.40;101643.53;5028984;28;6862;-69
2022/01/30 00:59:12;;;;;;;;;;;;;;;10.35;53.29;101652.81;5027337;28;6799;-69
2022/01/30 01:01:38;;;;;;;;;;;;;;;10.31;54.11;101663.63;5036192;28;6968;-69
2022/01/30 01:04:04;;;;;;;;;;;;;;;10.28;53.50;101663.41;5031022;28;7361;-69
2022/01/30 01:06:29;;;;;;;;;;;;;;;10.26;53.95;101667.56;5057797;28;6972;-69
2022/01/30 01:09:01;;;;;;;;;;;;;;;10.22;53.79;101663.88;5027725;28;7138;-69
2022/01/30 01:12:08;;;;;;;;;;;;;;;10.17;53.38;101659.22;5022351;28;7124;-69
2022/01/30 01:20:57;;;;;;;;;;;;;;;10.11;53.91;101663.13;5020542;28;7334;-69
2022/01/30 01:25:24;;;;;;;;;;;;;;;9.93;54.57;101665.28;5039145;28;7764;-69
2022/01/30 01:27:50;;;;;;;;;;;;;;;9.93;54.97;101667.84;5026343;28;6850;-69
2022/01/30 01:30:15;;;;;;;;;;;;;;;9.92;54.01;101670.28;5027090;28;6859;-69
2022/01/30 01:32:41;;;;;;;;;;;;;;;9.89;54.20;101672.66;5018929;28;7258;-69
2022/01/30 01:35:07;;;;;;;;;;;;;;;9.85;54.89;101675.00;5031513;28;7002;-69
2022/01/30 01:37:33;;;;;;;;;;;;;;;9.82;54.82;101674.75;4998267;28;6987;-69
2022/01/30 01:39:59;;;;;;;;;;;;;;;9.80;54.31;101686.56;5041242;28;6764;-69
2022/01/30 01:42:28;;;;;;;;;;;;;;;9.77;54.42;101683.78;5038863;28;7220;-69
2022/01/30 01:44:56;;;;;;;;;;;;;;;9.75;55.00;101685.31;5022980;28;6996;-69
2022/01/30 01:47:24;;;;;;;;;;;;;;;9.72;54.45;101690.25;5018288;28;8232;-69
2022/01/30 01:49:51;;;;;;;;;;;;;;;9.69;54.30;101679.78;5035159;28;6819;-69
2022/01/30 01:52:19;;;;;;;;;;;;;;;9.67;54.85;101689.03;5014170;28;7640;-69
2022/01/30 01:54:59;;;;;;;;;;;;;;;9.65;55.42;101688.00;5023884;28;6816;-69
2022/01/30 01:57:27;;;;;;;;;;;;;;;9.62;54.71;101688.69;5004220;28;7037;-69
2022/01/30 01:59:54;;;;;;;;;;;;;;;9.59;55.58;101691.91;5035902;28;7128;-69
2022/01/30 02:02:21;;;;;;;;;;;;;;;9.59;54.61;101696.13;5018260;28;6879;-69
2022/01/30 02:04:47;;;;;;;;;;;;;;;9.58;55.35;101692.69;5019829;28;6796;-69
2022/01/30 02:10:01;;;;;;;;;;;;;;;9.54;54.46;101683.00;5020782;28;6915;-69
2022/01/30 02:12:35;;;;;;;;;;;;;;;9.54;54.64;101683.00;4998155;28;7060;-69
2022/01/30 02:15:15;;;;;;;;;;;;;;;9.55;54.61;101681.34;5018758;28;7291;-69
2022/01/30 02:26:00;;;;;;;;;;;;;;;9.44;54.46;101686.56;5029358;28;6966;-68
2022/01/30 02:28:29;;;;;;;;;;;;;;;9.41;54.75;101691.44;5022283;28;6843;-69
2022/01/30 02:31:01;;;;;;;;;;;;;;;9.40;55.21;101696.47;5025230;28;7369;-69
2022/01/30 02:33:27;;;;;;;;;;;;;;;9.36;55.32;101700.47;5025177;28;6812;-69
2022/01/30 02:35:53;;;;;;;;;;;;;;;9.32;54.61;101693.38;5021485;28;6885;-69
2022/01/30 02:38:24;;;;;;;;;;;;;;;9.29;55.96;101688.00;5021724;28;6868;-69
2022/01/30 02:40:53;;;;;;;;;;;;;;;9.26;55.03;101691.22;5029022;28;6812;-69
2022/01/30 02:43:23;;;;;;;;;;;;;;;9.25;55.93;101681.75;5030158;28;7237;-69
2022/01/30 02:49:13;;;;;;;;;;;;;;;9.24;55.07;101686.78;5023350;28;6941;-69
2022/01/30 02:51:35;;;;;;;;;;;;;;;9.24;56.00;101685.09;5019071;28;7063;-69
2022/01/30 02:54:05;;;;;;;;;;;;;;;9.24;55.65;101679.97;5026067;28;7434;-69
2022/01/30 02:56:31;;;;;;;;;;;;;;;9.25;55.11;101692.00;5020338;28;8973;-69
2022/01/30 02:58:57;;;;;;;;;;;;;;;9.27;55.43;101705.81;5034921;28;6783;-69
2022/01/30 03:01:23;;;;;;;;;;;;;;;9.27;55.80;101708.38;5059697;28;6890;-69
2022/01/30 03:03:48;;;;;;;;;;;;;;;9.28;55.98;101712.72;5043540;28;6799;-69
2022/01/30 03:06:14;;;;;;;;;;;;;;;9.31;55.06;101724.81;5041313;28;6803;-69
2022/01/30 03:08:40;;;;;;;;;;;;;;;9.31;55.43;101722.25;5030773;28;6962;-69
2022/01/30 03:11:06;;;;;;;;;;;;;;;9.30;54.94;101717.91;5030321;28;6871;-69
2022/01/30 03:13:31;;;;;;;;;;;;;;;9.30;55.25;101730.72;5026659;28;6974;-69
2022/01/30 03:16:00;;;;;;;;;;;;;;;9.28;54.73;101722.94;5039833;28;7337;-69
2022/01/30 03:18:26;;;;;;;;;;;;;;;9.27;55.02;101726.28;5019558;28;7091;-69
2022/01/30 03:20:52;;;;;;;;;;;;;;;9.25;55.09;101727.81;5031234;28;6932;-69
2022/01/30 03:23:18;;;;;;;;;;;;;;;9.23;55.67;101724.25;5029879;28;6953;-69
2022/01/30 03:25:44;;;;;;;;;;;;;;;9.23;54.96;101728.50;5022607;28;8087;-69
2022/01/30 03:28:10;;;;;;;;;;;;;;;9.20;55.07;101729.16;5022543;28;6816;-69
2022/01/30 03:30:37;;;;;;;;;;;;;;;9.20;54.68;101736.81;5028314;28;7470;-69
2022/01/30 03:33:03;;;;;;;;;;;;;;;9.18;54.82;101733.25;5028611;28;6828;-69
2022/01/30 03:35:29;;;;;;;;;;;;;;;9.19;55.23;101740.16;5038469;28;8148;-69
2022/01/30 03:37:55;;;;;;;;;;;;;;;9.18;54.79;101740.94;5022881;28;6792;-69
2022/01/30 03:40:21;;;;;;;;;;;;;;;9.18;55.26;101733.25;5041921;28;6983;-69
2022/01/30 03:42:46;;;;;;;;;;;;;;;9.18;54.67;101740.94;5030073;28;6812;-69
2022/01/30 03:45:12;;;;;;;;;;;;;;;9.18;55.33;101740.94;5029051;28;7045;-69
2022/01/30 03:47:38;;;;;;;;;;;;;;;9.18;54.83;101746.06;5020163;28;6808;-69
2022/01/30 03:50:04;;;;;;;;;;;;;;;9.15;54.19;101749.25;5027558;28;6938;-69
2022/01/30 03:52:30;;;;;;;;;;;;;;;9.16;54.96;101742.47;5026511;28;6901;-69
2022/01/30 03:54:56;;;;;;;;;;;;;;;9.14;55.38;101744.03;5020041;28;7359;-69
2022/01/30 03:57:21;;;;;;;;;;;;;;;9.12;54.63;101741.34;5024642;28;7056;-69
2022/01/30 03:59:47;;;;;;;;;;;;;;;9.12;54.91;101736.22;5039487;28;6847;-69
2022/01/30 04:02:13;;;;;;;;;;;;;;;9.12;54.90;101740.47;5041090;28;7990;-69
2022/01/30 04:04:38;;;;;;;;;;;;;;;9.10;55.02;101737.78;5022141;28;6906;-70
2022/01/30 04:07:05;;;;;;;;;;;;;;;9.11;54.45;101743.81;5042005;28;7100;-69
2022/01/30 04:09:30;;;;;;;;;;;;;;;9.11;55.52;101746.38;5032148;28;6938;-69
2022/01/30 04:11:56;;;;;;;;;;;;;;;9.10;55.81;101758.25;5038814;28;7091;-69
2022/01/30 04:14:23;;;;;;;;;;;;;;;9.10;55.24;101754.81;5055906;28;6945;-69
2022/01/30 04:16:48;;;;;;;;;;;;;;;9.08;54.62;101764.00;5014046;28;7144;-69
2022/01/30 04:19:14;;;;;;;;;;;;;;;9.05;55.92;101771.47;5023532;28;6775;-69
2022/01/30 04:21:40;;;;;;;;;;;;;;;9.02;55.53;101775.56;5025286;28;6850;-69
2022/01/30 04:24:06;;;;;;;;;;;;;;;9.01;55.02;101778.00;5039162;28;6984;-69
2022/01/30 04:26:32;;;;;;;;;;;;;;;8.98;56.03;101778.69;5007381;28;7009;-69
2022/01/30 04:28:58;;;;;;;;;;;;;;;8.95;55.08;101773.31;5010533;28;6965;-70
2022/01/30 04:31:24;;;;;;;;;;;;;;;8.95;55.34;101780.13;5038728;28;6791;-69
2022/01/30 04:33:51;;;;;;;;;;;;;;;8.93;55.04;101779.97;5017092;28;7171;-69
2022/01/30 04:36:23;;;;;;;;;;;;;;;8.92;55.42;101793.53;5035828;28;6823;-70
2022/01/30 04:39:08;;;;;;;;;;;;;;;8.91;55.21;101778.97;5039972;28;7031;-70
2022/01/30 04:53:09;;;;;;;;;;;;;;;9.15;56.36;101772.28;5034024;28;6919;-69
2022/01/30 05:06:09;;;;;;;;;;;;;;;9.59;55.41;101794.31;5021799;28;7751;-69
2022/01/30 05:08:35;;;;;;;;;;;;;;;9.61;54.44;101791.88;5037449;28;6815;-69
2022/01/30 05:11:05;;;;;;;;;;;;;;;9.65;54.28;101792.97;5031645;28;6788;-69
2022/01/30 05:13:33;;;;;;;;;;;;;;;9.68;55.23;101800.91;5032035;28;6989;-69
2022/01/30 05:15:59;;;;;;;;;;;;;;;9.72;55.01;101797.78;5040135;28;7220;-69
2022/01/30 05:18:28;;;;;;;;;;;;;;;9.76;55.03;101798.91;5020968;28;6970;-69
2022/01/30 05:20:54;;;;;;;;;;;;;;;9.79;54.08;101804.22;5038444;28;6966;-71
2022/01/30 05:23:20;;;;;;;;;;;;;;;9.81;54.38;101803.56;5017530;28;6788;-70
2022/01/30 05:25:48;;;;;;;;;;;;;;;9.82;54.08;101810.47;5026363;28;6954;-69
2022/01/30 05:28:16;;;;;;;;;;;;;;;9.86;54.78;101809.03;5031892;28;6904;-69
2022/01/30 05:30:44;;;;;;;;;;;;;;;9.87;53.89;101810.81;5038226;28;7249;-69
2022/01/30 05:33:11;;;;;;;;;;;;;;;9.90;54.48;101815.28;5018922;28;7305;-69
2022/01/30 05:35:38;;;;;;;;;;;;;;;9.91;53.70;101810.28;5019995;28;7232;-69
2022/01/30 05:38:05;;;;;;;;;;;;;;;9.94;53.87;101809.59;5041579;28;6868;-69
2022/01/30 05:40:35;;;;;;;;;;;;;;;9.94;53.67;101814.72;5023027;28;8043;-69
2022/01/30 05:43:03;;;;;;;;;;;;;;;9.93;53.64;101825.72;5041648;28;6816;-70
2022/01/30 05:45:42;;;;;;;;;;;;;;;9.91;54.03;101823.09;5020494;28;6912;-70
2022/01/30 05:48:15;;;;;;;;;;;;;;;9.87;53.29;101815.94;5024116;28;6831;-70
2022/01/30 05:50:41;;;;;;;;;;;;;;;9.80;53.58;101831.63;5028565;28;6855;-70
2022/01/30 05:53:07;;;;;;;;;;;;;;;9.75;53.36;101828.72;4987319;28;6984;-69
2022/01/30 05:55:33;;;;;;;;;;;;;;;9.65;53.54;101827.16;5059543;28;6880;-69
2022/01/30 05:57:59;;;;;;;;;;;;;;;9.53;53.14;101834.78;5034651;28;7142;-69
2022/01/30 06:00:25;;;;;;;;;;;;;;;9.44;53.17;101824.78;5022568;28;6796;-69
2022/01/30 06:02:50;;;;;;;;;;;;;;;9.36;54.37;101828.41;5035553;28;7271;-69
2022/01/30 06:05:18;;;;;;;;;;;;;;;9.27;54.01;101828.63;5018564;28;6918;-69
2022/01/30 06:07:49;;;;;;;;;;;;;;;9.20;54.09;101828.91;5023737;28;7884;-70
2022/01/30 06:10:15;;;;;;;;;;;;;;;9.14;54.34;101831.00;5009230;28;7269;-69
2022/01/30 06:12:41;;;;;;;;;;;;;;;9.08;54.24;101821.19;5015589;28;6820;-69
2022/01/30 06:15:07;;;;;;;;;;;;;;;9.05;54.28;101820.97;5015909;28;6958;-69
2022/01/30 06:17:33;;;;;;;;;;;;;;;9.03;53.45;101825.06;5005382;28;6824;-69
2022/01/30 06:19:59;;;;;;;;;;;;;;;9.01;53.51;101835.19;5032287;28;7046;-70
2022/01/30 06:22:25;;;;;;;;;;;;;;;8.97;54.13;101838.25;5018805;28;6801;-69
2022/01/30 06:24:51;;;;;;;;;;;;;;;8.95;54.69;101839.81;5002087;28;6883;-69
2022/01/30 06:27:16;;;;;;;;;;;;;;;8.92;54.94;101849.81;5039468;28;9025;-69
2022/01/30 06:29:42;;;;;;;;;;;;;;;8.89;53.48;101858.13;5035973;28;6894;-70
2022/01/30 06:32:08;;;;;;;;;;;;;;;8.84;54.16;101854.34;5019312;28;9103;-70
2022/01/30 06:34:34;;;;;;;;;;;;;;;8.83;55.21;101857.63;5001208;28;6780;-69
2022/01/30 06:36:59;;;;;;;;;;;;;;;8.80;54.57;101856.53;5034333;28;7505;-69
2022/01/30 06:39:25;;;;;;;;;;;;;;;8.77;54.61;101864.84;5018664;28;6851;-70
2022/01/30 06:41:51;;;;;;;;;;;;;;;8.72;54.94;101855.91;5050726;28;7175;-69
2022/01/30 06:44:16;;;;;;;;;;;;;;;8.68;54.64;101849.66;5030512;28;7278;-70
2022/01/30 06:46:42;;;;;;;;;;;;;;;8.64;54.66;101862.06;5015030;28;6876;-69
2022/01/30 06:49:08;;;;;;;;;;;;;;;8.57;54.81;101869.25;5027333;28;6933;-69
2022/01/30 06:51:33;;;;;;;;;;;;;;;8.53;55.15;101874.00;5025610;28;7797;-69
2022/01/30 06:53:59;;;;;;;;;;;;;;;8.45;54.76;101881.91;5006577;28;7093;-69
2022/01/30 06:56:25;;;;;;;;;;;;;;;8.39;55.57;101880.53;5028056;28;7290;-69
2022/01/30 06:58:55;;;;;;;;;;;;;;;8.34;55.35;101881.03;5024148;28;7379;-69
2022/01/30 07:01:25;;;;;;;;;;;;;;;8.30;55.78;101885.78;5039005;28;6835;-69
2022/01/30 07:03:53;;;;;;;;;;;;;;;8.26;54.94;101888.84;5015510;28;7045;-69
2022/01/30 07:06:19;;;;;;;;;;;;;;;8.22;55.86;101886.84;5025926;28;7914;-70
2022/01/30 07:08:46;;;;;;;;;;;;;;;8.18;55.02;101894.22;5034728;28;7054;-69
2022/01/30 07:11:14;;;;;;;;;;;;;;;8.15;54.82;101898.19;5012533;28;6788;-69
2022/01/30 07:13:40;;;;;;;;;;;;;;;8.13;56.30;101899.72;5018254;28;6831;-69
2022/01/30 07:16:06;;;;;;;;;;;;;;;8.10;55.26;101902.91;5026411;28;6852;-69
2022/01/30 07:18:32;;;;;;;;;;;;;;;8.07;56.17;101907.78;5027857;28;7378;-69
2022/01/30 07:20:57;;;;;;;;;;;;;;;8.05;56.10;101904.22;5015546;28;6914;-69
2022/01/30 07:23:23;;;;;;;;;;;;;;;8.02;55.05;101901.41;5025319;28;7077;-69
2022/01/30 07:25:49;;;;;;;;;;;;;;;7.98;56.48;101904.47;5033729;28;6896;-69
2022/01/30 07:28:14;;;;;;;;;;;;;;;7.96;55.93;101906.00;5024953;28;6807;-69
2022/01/30 07:30:40;;;;;;;;;;;;;;;7.92;55.33;101909.97;5016246;28;6839;-69
2022/01/30 07:33:06;;;;;;;;;;;;;;;7.90;56.72;101912.38;5013712;28;6899;-69
2022/01/30 07:35:37;;;;;;;;;;;;;;;7.90;56.29;101914.94;5047411;28;6776;-69
2022/01/30 07:38:04;;;;;;;;;;;;;;;7.91;56.31;101916.72;5024021;28;7209;-69
2022/01/30 07:40:34;;;;;;;;;;;;;;;7.92;56.40;101915.97;5035920;28;6796;-69
2022/01/30 07:43:00;;;;;;;;;;;;;;;7.94;56.24;101917.75;5035507;28;6985;-69
2022/01/30 07:45:26;;;;;;;;;;;;;;;7.95;56.62;101917.88;5053144;28;6977;-72
2022/01/30 07:47:52;;;;;;;;;;;;;;;7.96;56.21;101929.00;5018964;28;6820;-72
2022/01/30 07:50:19;;;;;;;;;;;;;;;7.97;56.57;101930.78;5038530;28;6878;-72
2022/01/30 07:52:45;;;;;;;;;;;;;;;7.98;56.34;101924.91;5027587;28;6962;-72
2022/01/30 07:55:10;;;;;;;;;;;;;;;8.00;57.01;101931.03;5020118;28;7207;-72
2022/01/30 07:57:36;;;;;;;;;;;;;;;8.02;56.66;101937.19;5015455;28;7548;-72
2022/01/30 08:00:04;;;;;;;;;;;;;;;8.03;55.72;101929.63;5036540;28;6891;-72
2022/01/30 08:02:30;;;;;;;;;;;;;;;8.04;55.72;101936.50;5035819;28;9060;-72
2022/01/30 08:04:56;;;;;;;;;;;;;;;8.07;55.80;101943.53;5034019;28;6884;-72
2022/01/30 08:07:22;;;;;;;;;;;;;;;8.10;56.53;101938.66;5044512;28;7470;-72
2022/01/30 08:09:48;;;;;;;;;;;;;;;8.14;56.58;101945.84;5039095;28;6900;-72
2022/01/30 08:12:15;;;;;;;;;;;;;;;8.16;56.14;101941.75;5027898;28;7032;-72
2022/01/30 08:14:40;;;;;;;;;;;;;;;8.22;56.59;101953.25;5023668;28;6844;-72
2022/01/30 08:17:06;;;;;;;;;;;;;;;8.26;56.51;101960.38;5024976;28;6983;-72
2022/01/30 08:19:32;;;;;;;;;;;;;;;8.31;56.02;101960.00;5016584;28;6958;-72
2022/01/30 08:22:00;;;;;;;;;;;;;;;8.38;56.70;101950.28;5025642;28;7438;-72
2022/01/30 08:24:26;;;;;;;;;;;;;;;8.50;57.38;101950.38;5033194;28;7030;-72
2022/01/30 08:26:51;;;;;;;;;;;;;;;8.66;56.55;101950.00;5023776;28;6977;-72
2022/01/30 08:29:17;;;;;;;;;;;;;;;8.83;56.02;101953.91;5026386;28;6828;-72
2022/01/30 08:31:43;;;;;;;;;;;;;;;8.98;56.67;101962.81;5020662;28;6795;-72
2022/01/30 08:34:09;;;;;;;;;;;;;;;9.10;55.62;101968.00;5035878;28;6791;-72
2022/01/30 08:36:35;;;;;;;;;;;;;;;9.18;55.16;101971.19;5021877;28;6882;-72
2022/01/30 08:39:00;;;;;;;;;;;;;;;9.22;55.37;101967.16;5033774;28;9097;-72
2022/01/30 08:41:26;;;;;;;;;;;;;;;9.21;55.67;101970.50;5054284;28;7021;-72
2022/01/30 08:43:52;;;;;;;;;;;;;;;9.19;55.08;101972.97;5022580;28;6941;-72
2022/01/30 08:46:20;;;;;;;;;;;;;;;9.19;54.77;101972.97;5022854;28;6967;-72
2022/01/30 08:48:46;;;;;;;;;;;;;;;9.19;54.79;101970.41;5035631;28;7450;-72
2022/01/30 08:51:12;;;;;;;;;;;;;;;9.22;54.71;101962.03;5039361;28;6836;-72
2022/01/30 08:53:37;;;;;;;;;;;;;;;9.25;54.72;101964.88;5021662;28;6991;-72
2022/01/30 08:56:03;;;;;;;;;;;;;;;9.28;55.00;101967.66;5039905;28;7209;-72
2022/01/30 08:58:30;;;;;;;;;;;;;;;9.30;54.95;101971.22;5019338;28;7631;-72
2022/01/30 09:00:56;;;;;;;;;;;;;;;9.31;54.52;101979.03;5038475;28;7151;-72
2022/01/30 09:03:21;;;;;;;;;;;;;;;9.34;54.00;101972.34;5008670;28;7330;-72
2022/01/30 09:05:47;;;;;;;;;;;;;;;9.35;54.41;101974.16;5040640;28;6874;-72
2022/01/30 09:08:13;;;;;;;;;;;;;;;9.35;54.13;101974.16;5021342;28;7247;-72
2022/01/30 09:10:41;;;;;;;;;;;;;;;9.35;54.50;101975.06;5025608;28;6791;-72
2022/01/30 09:13:07;;;;;;;;;;;;;;;9.35;54.65;101969.03;5024934;28;6812;-72
2022/01/30 09:15:39;;;;;;;;;;;;;;;9.35;54.20;101974.16;5044503;28;7236;-72
2022/01/30 09:18:10;;;;;;;;;;;;;;;9.36;53.99;101969.16;5007970;28;6824;-72
2022/01/30 09:20:43;;;;;;;;;;;;;;;9.40;54.75;101977.97;5000399;28;6792;-72
2022/01/30 09:23:10;;;;;;;;;;;;;;;9.43;54.57;101981.66;5006948;28;6784;-72
2022/01/30 09:25:37;;;;;;;;;;;;;;;9.47;54.67;101977.69;5032946;28;7518;-72
2022/01/30 09:28:03;;;;;;;;;;;;;;;9.52;54.95;101983.16;5026333;28;6812;-72
2022/01/30 09:30:30;;;;;;;;;;;;;;;9.59;54.64;101988.88;5037806;28;7233;-72
2022/01/30 09:32:56;;;;;;;;;;;;;;;9.65;54.55;101979.84;5025528;28;6982;-72
2022/01/30 09:35:23;;;;;;;;;;;;;;;9.73;55.00;101991.56;5022531;28;6786;-72
2022/01/30 09:37:49;;;;;;;;;;;;;;;9.80;54.26;101992.94;5024411;28;7856;-72
2022/01/30 09:40:17;;;;;;;;;;;;;;;9.88;53.83;101998.66;5019659;28;6831;-72
2022/01/30 09:42:45;;;;;;;;;;;;;;;9.95;54.91;102004.38;5011566;28;7002;-72
2022/01/30 09:45:13;;;;;;;;;;;;;;;10.03;53.89;102002.38;5022027;28;6796;-72
2022/01/30 09:47:40;;;;;;;;;;;;;;;10.10;53.87;102002.06;5026472;28;6807;-72
2022/01/30 09:50:08;;;;;;;;;;;;;;;10.20;53.18;102005.34;5021798;28;7288;-72
2022/01/30 09:52:36;;;;;;;;;;;;;;;10.27;53.30;102015.28;5064799;28;6971;-72
2022/01/30 09:55:04;;;;;;;;;;;;;;;10.36;53.35;102015.97;5038225;28;6795;-72
2022/01/30 09:57:29;;;;;;;;;;;;;;;10.45;52.71;102010.66;4973113;28;7225;-72
2022/01/30 09:59:56;;;;;;;;;;;;;;;10.55;52.38;102019.94;5037157;28;6954;-72
2022/01/30 10:02:25;;;;;;;;;;;;;;;10.64;52.14;102017.13;5011354;28;7185;-72
2022/01/30 10:04:53;;;;;;;;;;;;;;;10.78;52.20;102013.03;5021232;28;7362;-72
2022/01/30 10:07:21;;;;;;;;;;;;;;;10.96;52.14;102005.75;5028447;28;6819;-72
2022/01/30 10:09:49;;;;;;;;;;;;;;;11.16;51.80;102014.03;5032683;28;6876;-70
2022/01/30 10:12:22;;;;;;;;;;;;;;;11.38;51.71;102011.28;5030513;28;6792;-70
2022/01/30 10:14:53;;;;;;;;;;;;;;;11.58;50.85;102012.69;5045518;28;6891;-70
2022/01/30 10:17:39;;;;;;;;;;;;;;;11.71;50.64;102017.00;5031256;28;6807;-70
2022/01/30 10:20:16;;;;;;;;;;;;;;;11.78;49.87;102008.03;5028264;28;7217;-69
2022/01/30 10:23:09;;;;;;;;;;;;;;;12.02;50.32;102013.06;5038641;28;7011;-69
2022/01/30 10:25:58;;;;;;;;;;;;;;;12.67;49.14;102003.66;5024370;28;7320;-69
2022/01/30 10:28:31;;;;;;;;;;;;;;;13.38;48.39;102008.13;5030445;28;7853;-69
2022/01/30 10:31:07;;;;;;;;;;;;;;;14.00;47.01;101999.03;5033060;28;6893;-69
2022/01/30 10:33:52;;;;;;;;;;;;;;;14.77;45.80;101996.53;5019569;28;6824;-69
2022/01/30 10:36:21;;;;;;;;;;;;;;;15.53;44.65;101990.34;5035001;28;7377;-69
2022/01/30 10:39:22;;;;;;;;;;;;;;;16.02;43.78;101990.25;5035833;28;6891;-70
2022/01/30 10:41:54;;;;;;;;;;;;;;;15.95;43.50;101992.53;5038977;28;6827;-70
2022/01/30 10:44:20;;;;;;;;;;;;;;;15.69;43.02;101988.53;5009924;28;8351;-70
2022/01/30 10:46:49;;;;;;;;;;;;;;;15.33;42.95;101991.84;5016294;28;6783;-70
2022/01/30 10:49:21;;;;;;;;;;;;;;;14.91;43.30;101994.72;5018439;28;7300;-69
2022/01/30 10:51:59;;;;;;;;;;;;;;;14.53;44.28;101998.56;5047877;28;6803;-69
2022/01/30 10:54:32;;;;;;;;;;;;;;;14.47;44.72;101995.66;5004430;28;7067;-69
2022/01/30 10:57:07;;;;;;;;;;;;;;;14.85;43.13;101991.81;5017498;28;7273;-70
2022/01/30 10:59:38;;;;;;;;;;;;;;;14.92;42.73;101990.47;5028845;28;6973;-70
2022/01/30 11:02:14;;;;;;;;;;;;;;;14.86;42.91;101997.06;5021779;28;7377;-70
2022/01/30 11:04:39;;;;;;;;;;;;;;;14.75;41.83;101985.25;5006345;28;7004;-70
2022/01/30 11:07:07;;;;;;;;;;;;;;;14.51;42.15;101995.94;5020701;28;7044;-70
2022/01/30 11:09:38;;;;;;;;;;;;;;;14.20;42.82;101996.75;5036175;28;6817;-69
2022/01/30 11:12:08;;;;;;;;;;;;;;;13.91;42.25;101989.84;5021094;28;6891;-69
2022/01/30 11:17:24;;;;;;;;;;;;;;;13.84;42.80;101986.88;5025372;28;6827;-69
2022/01/30 11:19:57;;;;;;;;;;;;;;;14.32;42.52;101987.94;5028818;28;6832;-69
2022/01/30 11:22:27;;;;;;;;;;;;;;;14.32;41.46;101986.22;5006946;28;7025;-69
2022/01/30 11:25:08;;;;;;;;;;;;;;;14.17;41.33;101981.06;5023973;28;7462;-70
2022/01/30 11:27:34;;;;;;;;;;;;;;;14.43;42.01;101968.81;5020981;28;6812;-70
2022/01/30 11:30:01;;;;;;;;;;;;;;;15.11;41.24;101951.94;5024658;28;7213;-70
2022/01/30 11:32:28;;;;;;;;;;;;;;;15.90;40.45;101946.53;5029453;28;6804;-70
2022/01/30 11:34:55;;;;;;;;;;;;;;;16.70;39.07;101951.28;5036476;28;7226;-70
2022/01/30 11:37:29;;;;;;;;;;;;;;;17.32;38.67;101936.91;5027618;28;6885;-70
2022/01/30 11:39:55;;;;;;;;;;;;;;;17.43;38.03;101934.81;5023369;28;6816;-70
2022/01/30 11:42:35;;;;;;;;;;;;;;;17.04;37.35;101943.44;5024814;28;7064;-70
2022/01/30 11:45:03;;;;;;;;;;;;;;;16.43;38.08;101944.88;5025651;28;6831;-70
2022/01/30 11:47:46;;;;;;;;;;;;;;;15.87;38.78;101933.44;5036443;28;6993;-70
2022/01/30 11:50:25;;;;;;;;;;;;;;;15.89;38.70;101937.88;5021248;28;7157;-69
2022/01/30 11:53:25;;;;;;;;;;;;;;;16.45;38.53;101925.13;5024659;28;7017;-69
2022/01/30 11:55:59;;;;;;;;;;;;;;;16.85;37.52;101914.88;5013649;28;6968;-69
2022/01/30 11:58:31;;;;;;;;;;;;;;;16.85;37.30;101904.53;5019932;28;6903;-69
2022/01/30 12:01:25;;;;;;;;;;;;;;;16.57;37.15;101901.53;5023380;28;7277;-69
2022/01/30 12:03:59;;;;;;;;;;;;;;;16.34;37.04;101909.06;5020432;28;6799;-69
2022/01/30 12:06:25;;;;;;;;;;;;;;;16.23;36.92;101902.50;5054940;28;6899;-69
2022/01/30 12:08:52;;;;;;;;;;;;;;;16.07;37.57;101900.84;5035669;28;8064;-69
2022/01/30 12:11:37;;;;;;;;;;;;;;;16.37;36.40;101898.00;5018887;28;7237;-69
2022/01/30 12:14:10;;;;;;;;;;;;;;;16.79;35.71;101887.88;5031843;28;6804;-71
2022/01/30 12:16:52;;;;;;;;;;;;;;;17.31;35.21;101872.06;5035782;28;7608;-71
2022/01/30 12:19:30;;;;;;;;;;;;;;;17.70;34.10;101872.00;5014269;28;7097;-71
2022/01/30 12:21:56;;;;;;;;;;;;;;;18.01;33.85;101867.19;5022726;28;6942;-71
2022/01/30 12:24:31;;;;;;;;;;;;;;;18.21;32.82;101869.75;5041542;28;6941;-71
2022/01/30 12:27:04;;;;;;;;;;;;;;;17.91;32.84;101869.41;5039886;28;7047;-71
2022/01/30 12:29:41;;;;;;;;;;;;;;;17.10;32.79;101872.88;5037993;28;6945;-71
2022/01/30 12:32:28;;;;;;;;;;;;;;;16.18;34.00;101870.34;5021592;28;6819;-70
2022/01/30 12:34:56;;;;;;;;;;;;;;;15.47;35.02;101872.84;5024201;28;6974;-70
2022/01/30 12:37:24;;;;;;;;;;;;;;;14.96;35.74;101863.31;5038171;28;9621;-70
2022/01/30 12:39:50;;;;;;;;;;;;;;;14.59;36.61;101867.34;5037220;28;6816;-70
2022/01/30 12:42:18;;;;;;;;;;;;;;;14.26;36.24;101869.84;5019126;28;7193;-70
2022/01/30 12:44:45;;;;;;;;;;;;;;;14.01;37.27;101856.44;5012136;28;6812;-70
2022/01/30 12:47:13;;;;;;;;;;;;;;;13.79;37.58;101863.72;5005804;28;7080;-70
2022/01/30 12:49:43;;;;;;;;;;;;;;;13.59;37.07;101861.78;5021931;28;6895;-70
2022/01/30 12:52:20;;;;;;;;;;;;;;;13.39;37.06;101868.28;5034126;28;6827;-71
2022/01/30 12:54:50;;;;;;;;;;;;;;;13.20;38.13;101861.13;5021470;28;6923;-70
2022/01/30 12:57:19;;;;;;;;;;;;;;;13.05;38.12;101853.38;4989822;28;7291;-70
2022/01/30 12:59:58;;;;;;;;;;;;;;;12.94;38.38;101850.13;5004054;28;7002;-70
2022/01/30 13:02:28;;;;;;;;;;;;;;;12.92;38.80;101849.16;5001843;28;6978;-70
2022/01/30 13:05:02;;;;;;;;;;;;;;;12.97;38.63;101847.72;5016667;28;7205;-70
2022/01/30 13:07:28;;;;;;;;;;;;;;;13.03;39.14;101842.06;5045019;28;6986;-71
2022/01/30 13:10:08;;;;;;;;;;;;;;;13.11;39.40;101840.84;5040717;28;6810;-70
2022/01/30 13:12:33;;;;;;;;;;;;;;;13.25;38.50;101835.66;5015912;28;6816;-70
2022/01/30 13:15:16;;;;;;;;;;;;;;;13.34;38.56;101833.66;5028841;28;6867;-71
2022/01/30 13:17:43;;;;;;;;;;;;;;;13.31;38.59;101829.19;5039149;28;7191;-71
2022/01/30 13:20:12;;;;;;;;;;;;;;;13.26;38.79;101824.56;5028761;28;6792;-70
2022/01/30 13:22:43;;;;;;;;;;;;;;;13.13;38.72;101828.97;5023914;28;7032;-70
2022/01/30 13:25:12;;;;;;;;;;;;;;;12.99;38.41;101829.81;5029104;28;6812;-70
2022/01/30 13:27:47;;;;;;;;;;;;;;;12.84;38.16;101834.91;5022637;28;7327;-71
2022/01/30 13:30:26;;;;;;;;;;;;;;;12.69;37.60;101832.28;5034296;28;7011;-71
2022/01/30 13:32:54;;;;;;;;;;;;;;;12.58;38.07;101836.75;5060671;28;6907;-70
2022/01/30 13:35:23;;;;;;;;;;;;;;;12.48;37.60;101835.28;5033033;28;7237;-70
2022/01/30 13:37:51;;;;;;;;;;;;;;;12.42;38.46;101840.03;5040289;28;6823;-70
2022/01/30 13:40:27;;;;;;;;;;;;;;;12.39;38.64;101820.16;5031798;28;6937;-70
2022/01/30 13:43:10;;;;;;;;;;;;;;;12.38;38.32;101820.09;5042005;28;7301;-70
2022/01/30 13:48:18;;;;;;;;;;;;;;;12.43;38.51;101809.28;5022731;28;6823;-71
2022/01/30 13:51:06;;;;;;;;;;;;;;;12.53;38.41;101813.31;5032728;28;6831;-71
2022/01/30 13:53:36;;;;;;;;;;;;;;;12.62;39.49;101802.72;5026032;28;7323;-71